Time;durP1;ratioP1;P1;durP2;ratioP2;P2;SDS_P1;SDS_P2;PMS_P1;PMS_P2;Temp;Humidity;BMP_temperature;BMP_pressure;BME280_temperature;BME280_humidity;BME280_pressure;Samples;Min_cycle;Max_cycle;Signal;HPM_P1;HPM_P2
2021/10/13 00:01:06;;;;;;;7.97;0.68;;;8.20;99.90;;;;;;5024117;28;20029;-65
2021/10/13 00:03:32;;;;;;;3.92;0.55;;;8.20;99.90;;;;;;5020142;28;20489;-63
2021/10/13 00:05:57;;;;;;;8.20;1.05;;;8.20;99.90;;;;;;5023167;28;20041;-63
2021/10/13 00:08:23;;;;;;;3.13;1.48;;;8.10;99.90;;;;;;5021622;28;20025;-62
2021/10/13 00:10:49;;;;;;;7.70;1.05;;;8.10;99.90;;;;;;5021605;28;20148;-63
2021/10/13 00:13:15;;;;;;;6.10;0.80;;;8.10;99.90;;;;;;5005191;28;20041;-62
2021/10/13 00:15:42;;;;;;;4.50;0.68;;;8.10;99.90;;;;;;5002726;28;20033;-62
2021/10/13 00:18:08;;;;;;;2.40;0.82;;;8.10;99.90;;;;;;5023288;28;20030;-63
2021/10/13 00:20:34;;;;;;;9.15;0.90;;;8.10;99.90;;;;;;5019914;28;20048;-62
2021/10/13 00:23:00;;;;;;;2.50;0.60;;;8.00;99.90;;;;;;5023057;28;20057;-63
2021/10/13 00:25:26;;;;;;;6.50;0.73;;;8.00;99.90;;;;;;5020875;28;20141;-63
2021/10/13 00:27:51;;;;;;;7.47;0.80;;;8.00;99.90;;;;;;5022800;28;20545;-63
2021/10/13 00:30:17;;;;;;;4.00;0.75;;;8.00;99.90;;;;;;5020855;28;20038;-67
2021/10/13 00:32:43;;;;;;;6.68;1.20;;;8.00;99.90;;;;;;5022618;28;20045;-62
2021/10/13 00:35:09;;;;;;;5.45;1.08;;;8.00;99.90;;;;;;5022875;28;20116;-64
2021/10/13 00:37:35;;;;;;;6.50;1.40;;;7.90;99.90;;;;;;5019758;28;20041;-63
2021/10/13 00:40:02;;;;;;;6.70;0.70;;;7.90;99.90;;;;;;5023210;28;20030;-63
2021/10/13 00:42:27;;;;;;;4.57;0.85;;;7.90;99.90;;;;;;5020502;28;20046;-63
2021/10/13 00:44:53;;;;;;;3.83;0.90;;;7.80;99.90;;;;;;5030210;28;20465;-65
2021/10/13 00:47:19;;;;;;;5.80;1.27;;;7.80;99.90;;;;;;5034687;28;20433;-62
2021/10/13 00:49:44;;;;;;;5.32;0.70;;;7.80;99.90;;;;;;5020127;28;20462;-64
2021/10/13 00:52:12;;;;;;;2.13;0.57;;;7.70;99.90;;;;;;5023019;28;20044;-64
2021/10/13 00:54:38;;;;;;;2.45;0.60;;;7.70;99.90;;;;;;5021509;28;20444;-62
2021/10/13 00:57:04;;;;;;;2.22;0.60;;;7.70;99.90;;;;;;5022681;28;20033;-63
2021/10/13 00:59:29;;;;;;;10.35;2.15;;;7.60;99.90;;;;;;5019087;28;20045;-63
2021/10/13 01:02:08;;;;;;;4.78;0.85;;;7.60;99.90;;;;;;5021991;28;20065;-65
2021/10/13 01:04:55;;;;;;;3.65;0.80;;;7.60;99.90;;;;;;5019264;28;20438;-64
2021/10/13 01:07:42;;;;;;;5.40;0.90;;;7.60;99.90;;;;;;5020774;28;20037;-63
2021/10/13 01:10:19;;;;;;;6.63;0.77;;;7.50;99.90;;;;;;5019077;28;20049;-64
2021/10/13 01:12:53;;;;;;;4.45;1.20;;;7.50;99.90;;;;;;5003268;28;20148;-64
2021/10/13 01:15:41;;;;;;;1.00;0.40;;;7.50;99.90;;;;;;5020394;28;20096;-64
2021/10/13 01:18:11;;;;;;;1.23;0.40;;;7.40;99.90;;;;;;5020420;28;20152;-64
2021/10/13 01:20:37;;;;;;;;;;;7.40;99.90;;;;;;5019424;28;20370;-63
2021/10/13 01:23:17;;;;;;;3.13;0.50;;;7.40;99.90;;;;;;5023466;28;19923;-63
2021/10/13 01:26:02;;;;;;;;;;;7.40;99.90;;;;;;5020365;28;20440;-64
2021/10/13 01:28:34;;;;;;;3.10;0.70;;;7.40;99.90;;;;;;5021357;28;19917;-63
2021/10/13 01:31:20;;;;;;;4.88;0.93;;;7.40;99.90;;;;;;5018581;28;20100;-64
2021/10/13 01:34:01;;;;;;;2.35;0.60;;;7.40;99.90;;;;;;5019837;28;20069;-64
2021/10/13 01:36:43;;;;;;;3.22;0.77;;;7.30;99.90;;;;;;5018502;28;20084;-64
2021/10/13 01:39:10;;;;;;;6.68;2.13;;;7.30;99.90;;;;;;5019199;28;20132;-64
2021/10/13 01:41:38;;;;;;;4.43;0.50;;;7.30;99.90;;;;;;5021592;28;20045;-63
2021/10/13 01:44:05;;;;;;;2.10;0.57;;;7.30;99.90;;;;;;5022055;28;20072;-64
2021/10/13 01:46:32;;;;;;;4.53;0.60;;;7.30;99.90;;;;;;5016880;28;20060;-63
2021/10/13 01:49:02;;;;;;;3.85;0.70;;;7.30;99.90;;;;;;5023566;28;20033;-62
2021/10/13 01:51:29;;;;;;;2.03;0.40;;;7.30;99.90;;;;;;5018238;28;20034;-64
2021/10/13 01:53:56;;;;;;;1.38;0.55;;;7.30;99.90;;;;;;5021058;28;20033;-64
2021/10/13 01:56:26;;;;;;;3.20;0.60;;;7.30;99.90;;;;;;5020546;28;20034;-62
2021/10/13 01:58:55;;;;;;;4.40;1.20;;;7.30;99.90;;;;;;5024289;28;20034;-64
2021/10/13 02:01:25;;;;;;;3.60;0.90;;;7.30;99.90;;;;;;5018681;28;20510;-64
2021/10/13 02:03:52;;;;;;;4.32;0.75;;;7.40;99.90;;;;;;5020783;28;20034;-63
2021/10/13 02:06:22;;;;;;;4.05;0.68;;;7.40;99.90;;;;;;5019845;28;20080;-64
2021/10/13 02:08:51;;;;;;;4.10;0.60;;;7.40;99.90;;;;;;5001502;28;20041;-64
2021/10/13 02:11:21;;;;;;;3.28;1.10;;;7.40;99.90;;;;;;5020040;28;20096;-63
2021/10/13 02:13:47;;;;;;;7.63;0.77;;;7.40;99.90;;;;;;5019227;28;20030;-64
2021/10/13 02:16:14;;;;;;;4.70;0.90;;;7.40;99.90;;;;;;5019441;28;20125;-62
2021/10/13 02:18:43;;;;;;;2.75;0.43;;;7.50;99.90;;;;;;5017215;28;20195;-64
2021/10/13 02:21:09;;;;;;;2.60;0.87;;;7.50;99.90;;;;;;5020401;28;20037;-62
2021/10/13 02:23:37;;;;;;;1.33;0.60;;;7.60;99.90;;;;;;5018271;28;20342;-63
2021/10/13 02:26:09;;;;;;;2.63;0.82;;;7.60;99.90;;;;;;5021749;28;20480;-63
2021/10/13 02:28:42;;;;;;;6.85;0.73;;;7.60;99.90;;;;;;5020558;28;20033;-63
2021/10/13 02:31:08;;;;;;;2.70;0.95;;;7.70;99.90;;;;;;5020264;28;20503;-64
2021/10/13 02:33:36;;;;;;;2.08;0.60;;;7.70;99.90;;;;;;5019851;28;20106;-62
2021/10/13 02:36:02;;;;;;;4.47;1.23;;;7.70;99.90;;;;;;5021052;28;20131;-64
2021/10/13 02:38:29;;;;;;;3.50;0.63;;;7.70;99.90;;;;;;5017028;28;20566;-63
2021/10/13 02:40:55;;;;;;;2.10;0.60;;;7.70;99.90;;;;;;5020543;28;20038;-62
2021/10/13 02:43:20;;;;;;;2.90;1.33;;;7.70;99.90;;;;;;5016820;28;20084;-63
2021/10/13 02:45:54;;;;;;;2.47;0.90;;;7.60;99.90;;;;;;5019413;28;20041;-63
2021/10/13 02:48:29;;;;;;;3.70;0.65;;;7.60;99.90;;;;;;5018579;28;20070;-62
2021/10/13 02:51:07;;;;;;;1.92;0.50;;;7.60;99.90;;;;;;5017283;28;20038;-65
2021/10/13 02:53:51;;;;;;;3.67;0.52;;;7.60;99.90;;;;;;5016128;28;20041;-64
2021/10/13 02:56:24;;;;;;;4.68;0.88;;;7.60;99.90;;;;;;5017084;28;20124;-65
2021/10/13 02:59:04;;;;;;;4.88;0.95;;;7.60;99.90;;;;;;5019846;28;20041;-63
2021/10/13 03:01:41;;;;;;;4.22;0.90;;;7.60;99.90;;;;;;5017164;28;20026;-64
2021/10/13 03:04:16;;;;;;;4.00;0.57;;;7.50;99.90;;;;;;5022189;28;20084;-64
2021/10/13 03:07:05;;;;;;;8.20;1.40;;;7.50;99.90;;;;;;5018862;28;20034;-63
2021/10/13 03:09:35;;;;;;;1.75;0.73;;;7.50;99.90;;;;;;5017417;28;20056;-64
2021/10/13 03:12:06;;;;;;;8.63;1.20;;;7.50;99.90;;;;;;5020422;28;20385;-63
2021/10/13 03:14:32;;;;;;;;;;;7.60;99.90;;;;;;5017625;28;20288;-63
2021/10/13 03:16:59;;;;;;;4.32;0.73;;;7.60;99.90;;;;;;5019762;28;19935;-62
2021/10/13 03:19:26;;;;;;;4.40;0.70;;;7.70;99.90;;;;;;5026329;28;20061;-63
2021/10/13 03:21:53;;;;;;;2.08;0.55;;;7.70;99.90;;;;;;5020762;28;20503;-63
2021/10/13 03:24:19;;;;;;;3.92;0.45;;;7.70;99.90;;;;;;5020291;28;20060;-64
2021/10/13 03:26:47;;;;;;;5.65;0.90;;;7.80;99.90;;;;;;5022057;28;20041;-63
2021/10/13 03:29:13;;;;;;;10.20;1.45;;;7.80;99.90;;;;;;5018689;28;20173;-64
2021/10/13 03:31:40;;;;;;;4.70;0.70;;;7.80;99.90;;;;;;5019209;28;20116;-63
2021/10/13 03:34:05;;;;;;;4.18;0.88;;;7.90;99.90;;;;;;5022220;28;20037;-64
2021/10/13 03:36:57;;;;;;;3.78;1.05;;;7.90;99.90;;;;;;5005700;28;20030;-62
2021/10/13 03:39:22;;;;;;;4.97;0.57;;;8.00;99.90;;;;;;5003818;28;20559;-63
2021/10/13 03:41:48;;;;;;;3.72;1.25;;;8.00;99.90;;;;;;5024064;28;20033;-63
2021/10/13 03:44:14;;;;;;;6.47;0.80;;;8.10;99.90;;;;;;5030248;28;20179;-62
2021/10/13 03:46:39;;;;;;;5.97;0.95;;;8.10;99.90;;;;;;5024754;28;20664;-64
2021/10/13 03:49:05;;;;;;;7.20;0.98;;;8.10;99.90;;;;;;5023651;28;20068;-62
2021/10/13 03:51:31;;;;;;;4.22;0.68;;;8.10;99.90;;;;;;5022921;28;20394;-63
2021/10/13 03:53:57;;;;;;;6.57;0.93;;;8.20;99.90;;;;;;5020573;28;20060;-62
2021/10/13 03:56:23;;;;;;;6.68;0.85;;;8.20;99.90;;;;;;5020877;28;20049;-62
2021/10/13 03:58:48;;;;;;;3.30;0.70;;;8.30;99.90;;;;;;5023346;28;20396;-62
2021/10/13 04:01:14;;;;;;;4.78;0.70;;;8.30;99.90;;;;;;5021689;28;20036;-65
2021/10/13 04:03:41;;;;;;;7.00;1.25;;;8.30;99.90;;;;;;5022009;28;20030;-64
2021/10/13 04:06:08;;;;;;;1.88;1.10;;;8.40;99.90;;;;;;5022424;28;20057;-62
2021/10/13 04:08:34;;;;;;;3.08;0.50;;;8.40;99.90;;;;;;5020597;28;20128;-64
2021/10/13 04:11:00;;;;;;;8.07;1.33;;;8.40;99.90;;;;;;5023030;28;20038;-63
2021/10/13 04:13:26;;;;;;;4.07;0.98;;;8.50;99.90;;;;;;5019653;28;20033;-63
2021/10/13 04:15:51;;;;;;;3.88;0.70;;;8.50;99.90;;;;;;5028020;28;20061;-63
2021/10/13 04:18:17;;;;;;;2.55;0.75;;;8.50;99.90;;;;;;5020120;28;20030;-63
2021/10/13 04:20:42;;;;;;;5.13;0.77;;;8.50;99.90;;;;;;5022414;28;20042;-63
2021/10/13 04:23:08;;;;;;;4.80;1.13;;;8.50;99.90;;;;;;5021598;28;20140;-62
2021/10/13 04:25:33;;;;;;;6.28;0.70;;;8.50;99.90;;;;;;5020780;28;20157;-62
2021/10/13 04:27:59;;;;;;;4.50;0.85;;;8.50;99.90;;;;;;5026403;28;20505;-60
2021/10/13 04:30:25;;;;;;;6.53;0.65;;;8.60;99.90;;;;;;5019017;28;20509;-62
2021/10/13 04:32:50;;;;;;;1.75;0.52;;;8.60;99.90;;;;;;5023941;28;20478;-62
2021/10/13 04:35:16;;;;;;;4.10;1.20;;;8.60;99.90;;;;;;5023103;28;20075;-64
2021/10/13 04:37:41;;;;;;;3.70;0.50;;;8.70;99.90;;;;;;5020125;28;20038;-62
2021/10/13 04:40:08;;;;;;;4.68;1.20;;;8.70;99.90;;;;;;5021110;28;20088;-63
2021/10/13 04:42:33;;;;;;;3.47;0.50;;;8.70;99.90;;;;;;5020825;28;20087;-62
2021/10/13 04:44:59;;;;;;;3.08;0.55;;;8.70;99.90;;;;;;5022624;28;20025;-62
2021/10/13 04:47:25;;;;;;;3.08;0.80;;;8.80;99.90;;;;;;5021732;28;20417;-64
2021/10/13 04:49:51;;;;;;;4.63;0.88;;;8.80;99.90;;;;;;5027077;28;20037;-63
2021/10/13 04:52:17;;;;;;;3.92;0.30;;;8.80;99.90;;;;;;5022997;28;20294;-63
2021/10/13 04:54:43;;;;;;;2.80;0.50;;;8.90;99.90;;;;;;5024417;28;20042;-63
2021/10/13 04:57:09;;;;;;;1.05;0.40;;;8.90;99.90;;;;;;5023582;28;20041;-63
2021/10/13 04:59:35;;;;;;;2.08;0.20;;;8.80;99.90;;;;;;5026725;28;20040;-63
2021/10/13 05:02:00;;;;;;;3.70;0.95;;;8.80;99.90;;;;;;5020633;28;20466;-63
2021/10/13 05:04:26;;;;;;;5.55;0.93;;;8.70;99.90;;;;;;5018088;28;20136;-62
2021/10/13 05:06:52;;;;;;;2.08;0.45;;;8.70;99.90;;;;;;5021988;28;20033;-65
2021/10/13 05:09:17;;;;;;;9.00;0.77;;;8.60;99.90;;;;;;5020521;28;20034;-63
2021/10/13 05:11:44;;;;;;;4.63;0.40;;;8.60;99.90;;;;;;5020879;28;20708;-62
2021/10/13 05:14:10;;;;;;;4.28;0.40;;;8.60;99.90;;;;;;5004939;28;20477;-62
2021/10/13 05:16:36;;;;;;;1.73;0.40;;;8.50;99.90;;;;;;5020759;28;20569;-63
2021/10/13 05:19:02;;;;;;;3.28;0.47;;;8.40;99.90;;;;;;5026480;28;20045;-64
2021/10/13 05:21:28;;;;;;;7.93;1.00;;;8.40;99.90;;;;;;5023048;28;20033;-63
2021/10/13 05:23:53;;;;;;;6.38;1.08;;;8.40;99.90;;;;;;5022027;28;20041;-62
2021/10/13 05:26:19;;;;;;;5.80;0.43;;;8.30;99.90;;;;;;5029244;28;20040;-66
2021/10/13 05:28:45;;;;;;;3.60;0.50;;;8.20;99.90;;;;;;5012101;28;20044;-63
2021/10/13 05:31:10;;;;;;;4.93;0.40;;;8.20;99.90;;;;;;5023044;28;20125;-62
2021/10/13 05:33:36;;;;;;;3.58;1.00;;;8.20;99.90;;;;;;5023217;28;20038;-63
2021/10/13 05:36:02;;;;;;;7.40;0.43;;;8.10;99.90;;;;;;5027975;28;20040;-62
2021/10/13 05:38:27;;;;;;;3.88;0.90;;;8.20;99.90;;;;;;5028079;28;20029;-64
2021/10/13 05:40:54;;;;;;;1.42;0.40;;;8.10;99.90;;;;;;5027829;28;20038;-62
2021/10/13 05:43:20;;;;;;;1.85;0.85;;;8.10;99.90;;;;;;5025570;28;20033;-61
2021/10/13 05:45:46;;;;;;;5.18;0.60;;;8.10;99.90;;;;;;5025115;28;20041;-62
2021/10/13 05:48:12;;;;;;;8.50;1.05;;;8.20;99.90;;;;;;5026323;28;20088;-63
2021/10/13 05:50:38;;;;;;;4.05;0.73;;;8.10;99.90;;;;;;5027615;28;20037;-62
2021/10/13 05:53:03;;;;;;;2.72;0.50;;;8.10;99.90;;;;;;5011546;28;20124;-62
2021/10/13 05:55:29;;;;;;;1.48;0.50;;;8.00;99.90;;;;;;5024178;28;20504;-63
2021/10/13 05:57:54;;;;;;;4.85;0.90;;;8.00;99.90;;;;;;5026877;28;20132;-62
2021/10/13 06:00:22;;;;;;;2.13;0.75;;;7.90;99.90;;;;;;5024738;28;20124;-62
2021/10/13 06:02:48;;;;;;;2.58;0.90;;;7.90;99.90;;;;;;5025039;28;20056;-62
2021/10/13 06:05:13;;;;;;;2.95;0.50;;;7.90;99.90;;;;;;5024832;28;20398;-62
2021/10/13 06:07:39;;;;;;;5.05;0.60;;;7.80;99.90;;;;;;5024553;28;20044;-61
2021/10/13 06:10:05;;;;;;;2.72;0.90;;;7.90;99.90;;;;;;5026986;28;20068;-62
2021/10/13 06:12:30;;;;;;;4.90;0.57;;;7.80;99.90;;;;;;5031192;28;20033;-62
2021/10/13 06:14:56;;;;;;;2.45;0.60;;;7.90;99.90;;;;;;5029532;28;20030;-62
2021/10/13 06:17:21;;;;;;;1.65;0.75;;;7.90;99.90;;;;;;5026670;28;20064;-61
2021/10/13 06:19:47;;;;;;;6.13;0.75;;;8.00;99.90;;;;;;5024571;28;20041;-62
2021/10/13 06:22:13;;;;;;;3.60;0.65;;;8.00;99.90;;;;;;5025077;28;20033;-62
2021/10/13 06:24:39;;;;;;;5.10;0.70;;;8.10;99.90;;;;;;5028272;28;20045;-62
2021/10/13 06:27:05;;;;;;;2.28;0.80;;;8.10;99.90;;;;;;5023875;28;20448;-63
2021/10/13 06:29:32;;;;;;;3.95;1.13;;;8.20;99.90;;;;;;5022370;28;20082;-62
2021/10/13 06:31:57;;;;;;;7.32;0.73;;;8.20;99.90;;;;;;5032971;28;20082;-62
2021/10/13 06:34:23;;;;;;;5.68;1.20;;;8.20;99.90;;;;;;5024587;28;20030;-62
2021/10/13 06:36:49;;;;;;;3.10;1.10;;;8.20;99.90;;;;;;5027808;28;20128;-63
2021/10/13 06:39:14;;;;;;;1.90;0.80;;;8.20;99.90;;;;;;5030891;28;20477;-62
2021/10/13 06:41:40;;;;;;;3.17;0.70;;;8.20;99.90;;;;;;5025218;28;20062;-62
2021/10/13 06:44:06;;;;;;;2.55;0.75;;;8.20;99.90;;;;;;5026384;28;20041;-61
2021/10/13 06:46:31;;;;;;;3.45;0.85;;;8.20;99.90;;;;;;5025224;28;20120;-63
2021/10/13 06:48:57;;;;;;;2.88;0.90;;;8.30;99.90;;;;;;5026539;28;20036;-62
2021/10/13 06:51:23;;;;;;;4.20;0.98;;;8.40;99.90;;;;;;5021462;28;20034;-61
2021/10/13 06:53:48;;;;;;;6.43;1.00;;;8.50;99.90;;;;;;5031912;28;20041;-63
2021/10/13 06:56:14;;;;;;;5.60;1.10;;;8.60;99.90;;;;;;5009419;28;20438;-62
2021/10/13 06:58:40;;;;;;;6.43;1.63;;;8.80;99.90;;;;;;5022200;28;20123;-62
2021/10/13 07:01:06;;;;;;;7.60;1.60;;;8.90;99.90;;;;;;5025411;28;20037;-62
2021/10/13 07:03:31;;;;;;;4.35;0.80;;;8.90;99.90;;;;;;5029903;28;20041;-61
2021/10/13 07:05:57;;;;;;;11.25;1.30;;;9.00;99.90;;;;;;5027190;28;20037;-62
2021/10/13 07:08:22;;;;;;;7.07;1.33;;;9.10;99.90;;;;;;5033031;28;20040;-62
2021/10/13 07:10:48;;;;;;;3.60;1.55;;;9.20;99.90;;;;;;5039980;28;20045;-61
2021/10/13 07:13:14;;;;;;;3.75;0.80;;;9.40;99.90;;;;;;5031970;28;20126;-62
2021/10/13 07:15:39;;;;;;;2.92;1.05;;;9.50;99.90;;;;;;5025932;28;20037;-63
2021/10/13 07:18:05;;;;;;;5.95;0.93;;;9.60;99.90;;;;;;5030960;28;20049;-62
2021/10/13 07:20:30;;;;;;;8.63;1.45;;;9.70;99.90;;;;;;5031587;28;20103;-61
2021/10/13 07:22:57;;;;;;;9.32;0.70;;;9.80;99.90;;;;;;5030324;28;20042;-62
2021/10/13 07:25:25;;;;;;;3.63;0.75;;;9.80;99.90;;;;;;5030648;28;20052;-61
2021/10/13 07:27:51;;;;;;;4.07;0.70;;;9.90;99.90;;;;;;5037167;28;20409;-61
2021/10/13 07:30:22;;;;;;;3.95;0.80;;;10.00;99.90;;;;;;5028181;28;20044;-61
2021/10/13 07:32:48;;;;;;;;;;;10.10;99.90;;;;;;5024938;28;20048;-62
2021/10/13 07:35:14;;;;;;;4.38;0.90;;;10.20;99.90;;;;;;5023888;28;19917;-62
2021/10/13 07:37:39;;;;;;;7.15;2.55;;;10.40;99.90;;;;;;5027753;28;20037;-62
2021/10/13 07:40:06;;;;;;;7.13;1.30;;;10.50;99.90;;;;;;5021669;28;20096;-63
2021/10/13 07:42:32;;;;;;;9.30;1.45;;;10.50;99.90;;;;;;5029563;28;20492;-63
2021/10/13 07:44:58;;;;;;;2.45;0.55;;;10.60;99.90;;;;;;5031949;28;20036;-62
2021/10/13 07:47:24;;;;;;;4.70;0.90;;;10.70;99.90;;;;;;5028900;28;20029;-63
2021/10/13 07:49:49;;;;;;;3.97;1.00;;;10.80;99.90;;;;;;5033766;28;20564;-62
2021/10/13 07:52:15;;;;;;;4.97;0.40;;;10.80;99.90;;;;;;5028710;28;20397;-62
2021/10/13 07:54:41;;;;;;;2.60;1.23;;;10.90;99.90;;;;;;5034506;28;20033;-62
2021/10/13 07:57:07;;;;;;;5.28;1.00;;;10.90;99.90;;;;;;5031810;28;20434;-62
2021/10/13 07:59:33;;;;;;;3.85;0.38;;;10.80;99.90;;;;;;5021041;28;20029;-63
2021/10/13 08:01:58;;;;;;;7.47;1.60;;;10.80;99.90;;;;;;5029103;28;20401;-62
2021/10/13 08:04:25;;;;;;;6.32;0.70;;;10.80;99.90;;;;;;5020176;28;20069;-62
2021/10/13 08:06:54;;;;;;;7.65;0.70;;;10.70;99.90;;;;;;5024785;28;20106;-62
2021/10/13 08:09:19;;;;;;;6.57;0.40;;;10.70;99.90;;;;;;5032448;28;20029;-63
2021/10/13 08:11:46;;;;;;;1.77;0.60;;;10.70;99.90;;;;;;5015985;28;20094;-62
2021/10/13 08:14:13;;;;;;;2.75;0.60;;;10.80;99.90;;;;;;5008172;28;20038;-62
2021/10/13 08:16:38;;;;;;;5.78;0.65;;;10.80;99.90;;;;;;5034771;28;20036;-62
2021/10/13 08:19:04;;;;;;;2.28;0.43;;;10.70;99.90;;;;;;5032840;28;20451;-62
2021/10/13 08:21:30;;;;;;;3.72;0.40;;;10.70;99.90;;;;;;5013053;28;20029;-62
2021/10/13 08:23:55;;;;;;;3.38;0.57;;;10.70;99.90;;;;;;5028207;28;20029;-61
2021/10/13 08:26:21;;;;;;;3.53;0.35;;;10.60;99.90;;;;;;5032746;28;20732;-63
2021/10/13 08:28:47;;;;;;;6.38;1.27;;;10.60;99.90;;;;;;5013716;28;20084;-62
2021/10/13 08:31:14;;;;;;;1.20;0.43;;;10.60;99.90;;;;;;5010064;28;20069;-62
2021/10/13 08:33:40;;;;;;;2.70;1.00;;;10.60;99.90;;;;;;5007748;28;20056;-62
2021/10/13 08:36:06;;;;;;;8.25;0.60;;;10.70;99.90;;;;;;5012571;28;20041;-62
2021/10/13 08:38:32;;;;;;;5.70;0.93;;;10.70;99.90;;;;;;5022280;28;20034;-63
2021/10/13 08:40:57;;;;;;;10.10;1.30;;;10.70;99.90;;;;;;5029360;28;20044;-62
2021/10/13 08:43:23;;;;;;;4.10;0.98;;;10.80;99.90;;;;;;5011941;28;20110;-61
2021/10/13 08:45:49;;;;;;;3.28;0.50;;;10.80;99.90;;;;;;5025410;28;20037;-64
2021/10/13 08:48:15;;;;;;;1.00;0.47;;;10.80;99.90;;;;;;5030992;28;20044;-61
2021/10/13 08:50:40;;;;;;;8.40;0.50;;;10.90;99.90;;;;;;5036289;28;20046;-62
2021/10/13 08:53:14;;;;;;;4.65;0.70;;;10.80;99.90;;;;;;5032175;28;20346;-63
2021/10/13 08:55:41;;;;;;;2.03;0.43;;;10.90;99.90;;;;;;5006002;28;20045;-61
2021/10/13 08:58:14;;;;;;;2.10;0.43;;;10.90;99.90;;;;;;5031209;28;20050;-61
2021/10/13 09:01:09;;;;;;;3.03;0.60;;;11.00;99.90;;;;;;5007768;28;20049;-61
2021/10/13 09:03:36;;;;;;;2.05;0.30;;;11.00;99.90;;;;;;5024966;28;20116;-62
2021/10/13 09:06:16;;;;;;;1.75;0.65;;;11.20;99.90;;;;;;5029805;28;20045;-62
2021/10/13 09:09:07;;;;;;;5.18;0.73;;;11.40;99.90;;;;;;5023268;28;20129;-62
2021/10/13 09:11:33;;;;;;;4.65;0.50;;;11.60;99.90;;;;;;5011250;28;20042;-62
2021/10/13 09:14:04;;;;;;;4.05;0.65;;;11.80;99.90;;;;;;5031901;28;20130;-63
2021/10/13 09:16:30;;;;;;;2.40;0.47;;;12.00;99.90;;;;;;5026074;28;20033;-62
2021/10/13 09:18:59;;;;;;;1.00;0.20;;;12.10;99.90;;;;;;5021628;28;20497;-63
2021/10/13 09:21:56;;;;;;;2.40;0.30;;;12.20;99.90;;;;;;5031145;28;20150;-63
2021/10/13 09:24:24;;;;;;;2.22;0.15;;;12.20;99.90;;;;;;5032573;28;20039;-62
2021/10/13 09:26:51;;;;;;;3.80;1.13;;;12.20;99.90;;;;;;5019662;28;20052;-63
2021/10/13 09:29:17;;;;;;;5.63;0.63;;;12.30;99.90;;;;;;5027680;28;20591;-62
2021/10/13 09:31:43;;;;;;;4.18;0.20;;;12.40;99.90;;;;;;5029116;28;20039;-62
2021/10/13 09:34:11;;;;;;;3.47;0.32;;;12.50;99.90;;;;;;5027080;28;20037;-62
2021/10/13 09:36:45;;;;;;;2.33;0.68;;;12.70;99.90;;;;;;5026362;28;20037;-63
2021/10/13 09:39:12;;;;;;;1.63;0.40;;;12.90;99.90;;;;;;5026288;28;20026;-62
2021/10/13 09:42:12;;;;;;;1.90;0.30;;;13.10;99.90;;;;;;5023934;28;20054;-64
2021/10/13 09:44:54;;;;;;;3.72;0.40;;;13.10;99.90;;;;;;5021874;28;20511;-61
2021/10/13 09:47:34;;;;;;;3.40;0.10;;;13.30;99.90;;;;;;5001578;28;20107;-66
2021/10/13 09:50:06;;;;;;;1.65;0.40;;;13.30;99.90;;;;;;5018822;28;20045;-63
2021/10/13 09:52:32;;;;;;;1.40;0.20;;;13.40;99.90;;;;;;5015945;28;20068;-63
2021/10/13 09:55:02;;;;;;;6.85;0.32;;;13.40;99.90;;;;;;5022673;28;20034;-62
2021/10/13 09:57:31;;;;;;;6.78;0.60;;;13.40;99.90;;;;;;5021855;28;20073;-62
2021/10/13 10:00:11;;;;;;;2.17;0.35;;;13.30;99.90;;;;;;5024498;28;20260;-62
2021/10/13 10:02:46;;;;;;;2.47;0.50;;;13.20;99.90;;;;;;5024882;28;20033;-63
2021/10/13 10:05:14;;;;;;;4.80;0.38;;;13.20;99.90;;;;;;5024846;28;20148;-61
2021/10/13 10:07:44;;;;;;;1.77;0.32;;;13.20;99.90;;;;;;5023679;28;20513;-60
2021/10/13 10:10:16;;;;;;;2.37;0.80;;;13.30;99.90;;;;;;5019929;28;20128;-61
2021/10/13 10:13:04;;;;;;;2.85;0.30;;;13.30;99.90;;;;;;5022986;28;20065;-64
2021/10/13 10:15:42;;;;;;;5.05;1.05;;;13.50;99.90;;;;;;5016566;28;20030;-63
2021/10/13 10:18:32;;;;;;;1.45;0.20;;;13.70;99.90;;;;;;5025342;28;20060;-63
2021/10/13 10:21:23;;;;;;;3.00;0.40;;;14.10;99.90;;;;;;5032867;28;20083;-63
2021/10/13 10:24:28;;;;;;;5.07;0.63;;;14.40;99.90;;;;;;5023582;28;20033;-63
2021/10/13 10:27:25;;;;;;;0.60;0.10;;;14.50;99.90;;;;;;5020735;28;20103;-63
2021/10/13 10:30:09;;;;;;;4.55;0.40;;;14.60;99.90;;;;;;5011906;28;20049;-64
2021/10/13 10:32:57;;;;;;;3.20;0.57;;;14.60;99.90;;;;;;5025177;28;20040;-63
2021/10/13 10:35:24;;;;;;;3.15;0.43;;;14.50;99.90;;;;;;5012639;28;20073;-62
2021/10/13 10:37:52;;;;;;;2.50;0.30;;;14.50;99.90;;;;;;5024558;28;20041;-63
2021/10/13 10:40:27;;;;;;;4.10;0.47;;;14.50;99.90;;;;;;5028011;28;20038;-64
2021/10/13 10:43:18;;;;;;;2.03;0.57;;;14.50;99.90;;;;;;5029779;28;20046;-64
2021/10/13 10:45:58;;;;;;;3.47;0.30;;;14.60;99.90;;;;;;5026450;28;20033;-62
2021/10/13 10:48:54;;;;;;;0.38;0.10;;;14.60;99.90;;;;;;5012056;28;20045;-62
2021/10/13 10:51:20;;;;;;;1.63;0.15;;;14.60;99.90;;;;;;4986492;28;20037;-69
2021/10/13 10:53:49;;;;;;;11.80;1.33;;;14.50;99.90;;;;;;5026130;28;20061;-61
2021/10/13 10:56:21;;;;;;;1.92;0.50;;;14.40;99.90;;;;;;5031857;28;20041;-64
2021/10/13 10:59:37;;;;;;;3.08;0.40;;;14.10;99.90;;;;;;5026349;28;20108;-63
2021/10/13 11:02:09;;;;;;;6.22;0.30;;;13.70;99.90;;;;;;4976729;28;20063;-63
2021/10/13 11:04:35;;;;;;;4.47;0.47;;;13.40;99.90;;;;;;4971450;28;20518;-63
2021/10/13 11:07:02;;;;;;;1.90;0.50;;;13.20;99.90;;;;;;5001635;28;20477;-62
2021/10/13 11:09:27;;;;;;;5.57;0.65;;;13.00;99.90;;;;;;5017678;28;20044;-63
2021/10/13 11:11:53;;;;;;;3.63;0.28;;;12.90;99.90;;;;;;5017550;28;20034;-63
2021/10/13 11:14:25;;;;;;;4.82;0.30;;;12.90;99.90;;;;;;5019666;28;20030;-65
2021/10/13 11:17:01;;;;;;;4.90;0.88;;;12.80;99.90;;;;;;5017564;28;20042;-63
2021/10/13 11:19:34;;;;;;;3.13;0.20;;;12.70;99.90;;;;;;5019922;28;20489;-63
2021/10/13 11:22:06;;;;;;;4.55;1.10;;;12.60;99.90;;;;;;5017306;28;20037;-62
2021/10/13 11:24:34;;;;;;;2.58;0.60;;;12.70;99.90;;;;;;5017033;28;20073;-63
2021/10/13 11:27:00;;;;;;;3.40;0.52;;;12.80;99.90;;;;;;5020519;28;20026;-64
2021/10/13 11:29:28;;;;;;;0.60;0.50;;;12.90;99.90;;;;;;5003384;28;20033;-64
2021/10/13 11:32:23;;;;;;;2.05;0.30;;;13.00;99.90;;;;;;5020702;28;20075;-63
2021/10/13 11:34:58;;;;;;;1.35;0.20;;;13.20;99.90;;;;;;5003365;28;20064;-65
2021/10/13 11:37:28;;;;;;;5.22;0.30;;;13.10;99.90;;;;;;5019699;28;20442;-63
2021/10/13 11:39:54;;;;;;;1.17;0.40;;;13.20;99.90;;;;;;5017002;28;20434;-63
2021/10/13 11:42:24;;;;;;;4.43;0.68;;;13.20;99.90;;;;;;5019742;28;20171;-63
2021/10/13 11:44:51;;;;;;;1.70;0.10;;;13.30;99.90;;;;;;5017676;28;20065;-62
2021/10/13 11:47:30;;;;;;;2.75;0.22;;;13.40;99.90;;;;;;5019513;28;20034;-62
2021/10/13 11:49:59;;;;;;;8.88;0.85;;;13.50;99.90;;;;;;5016985;28;20080;-63
2021/10/13 11:52:25;;;;;;;1.80;1.05;;;13.60;99.90;;;;;;5016867;28;20030;-62
2021/10/13 11:55:15;;;;;;;3.83;0.43;;;13.60;99.90;;;;;;5024078;28;20405;-63
2021/10/13 11:57:50;;;;;;;1.88;1.00;;;13.50;99.90;;;;;;5022090;28;20041;-63
2021/10/13 12:00:22;;;;;;;3.15;0.60;;;13.60;99.90;;;;;;5021440;28;20051;-62
2021/10/13 12:03:00;;;;;;;1.45;0.20;;;13.90;99.90;;;;;;5023394;28;20053;-63
2021/10/13 12:06:13;;;;;;;2.95;0.30;;;14.10;99.90;;;;;;5020275;28;20505;-64
2021/10/13 12:08:56;;;;;;;7.15;0.52;;;14.20;99.90;;;;;;5015113;28;20157;-63
2021/10/13 12:11:22;;;;;;;7.55;0.38;;;14.10;99.90;;;;;;5020369;28;20125;-63
2021/10/13 12:13:51;;;;;;;1.75;0.22;;;14.10;99.90;;;;;;5005426;28;20095;-63
2021/10/13 12:16:23;;;;;;;2.58;0.50;;;14.10;99.90;;;;;;5020981;28;20041;-64
2021/10/13 12:18:49;;;;;;;1.60;0.10;;;14.00;99.90;;;;;;5022844;28;20616;-64
2021/10/13 12:21:18;;;;;;;2.65;0.40;;;14.00;99.90;;;;;;5024004;28;20068;-63
2021/10/13 12:24:01;;;;;;;2.47;0.38;;;14.10;99.90;;;;;;5021052;28;20565;-64
2021/10/13 12:26:41;;;;;;;2.53;0.17;;;14.10;99.90;;;;;;5023978;28;20245;-64
2021/10/13 12:29:13;;;;;;;4.47;0.28;;;14.00;99.90;;;;;;5021410;28;20096;-62
2021/10/13 12:31:40;;;;;;;1.85;0.20;;;14.10;99.90;;;;;;5021588;28;20059;-63
2021/10/13 12:34:14;;;;;;;6.95;0.45;;;14.10;99.90;;;;;;5021130;28;20052;-63
2021/10/13 12:36:52;;;;;;;2.25;0.40;;;14.00;99.90;;;;;;5021233;28;20050;-63
2021/10/13 12:39:23;;;;;;;2.78;0.65;;;14.00;99.90;;;;;;5022750;28;20026;-63
2021/10/13 12:41:49;;;;;;;7.82;0.68;;;14.00;99.90;;;;;;5020170;28;20074;-63
2021/10/13 12:44:27;;;;;;;5.78;0.40;;;14.00;99.90;;;;;;5022507;28;20037;-63
2021/10/13 12:47:14;;;;;;;3.58;0.22;;;14.00;99.90;;;;;;5019779;28;20434;-63
2021/10/13 12:49:42;;;;;;;2.63;0.40;;;14.10;99.90;;;;;;5020854;28;20051;-63
2021/10/13 12:52:11;;;;;;;1.05;0.30;;;14.20;99.90;;;;;;5021604;28;20056;-63
2021/10/13 12:54:47;;;;;;;1.83;0.30;;;14.30;99.90;;;;;;5020842;28;20034;-63
2021/10/13 12:57:18;;;;;;;3.47;1.17;;;14.30;99.90;;;;;;5020650;28;20075;-62
2021/10/13 12:59:44;;;;;;;2.65;0.20;;;14.40;99.90;;;;;;5021568;28;20057;-63
2021/10/13 13:02:10;;;;;;;2.55;0.20;;;14.40;99.90;;;;;;5020466;28;20033;-63
2021/10/13 13:04:36;;;;;;;1.27;0.50;;;14.40;99.90;;;;;;5020445;28;20386;-64
2021/10/13 13:07:05;;;;;;;7.68;0.40;;;14.40;99.90;;;;;;5022473;28;20022;-62